McLaughlin, South Dakota
Current Conditions -  °F | °C
As of 2:52 AM on Monday 26 Jan 2015 (Local Time) from KMBG Reporting Station
Clear Clear  
Wind Chill: 31°   Ceiling: Unl
Heat Index: 38°   Visibility: 10mi
Dew Point: 33°   Wind: 10mph
Humidity: 83%   Direction: 330°NNW
Pressure: 29.81"   Gusts: NA
Location:  45.81°N, 100.81°W
Report Text: KMBG 260952Z AUTO 33009KT 10SM CLR 03/01 A2981 RMK AO2 SLP108 T00330006
Loading
Personal Weather Stations






























Interactive Weather Map New forecast layout! Learn more

10-Day Weather Forecast

Advertisements
Track Severe Weather on mobile